createdAt,value
2022-09-07T00:03:37.180Z,100148.75
2022-09-07T00:08:39.324Z,100150.47
2022-09-07T00:13:41.672Z,100149.56
2022-09-07T00:18:46.067Z,100143.56
2022-09-07T00:23:49.697Z,100141.66
2022-09-07T00:28:50.864Z,100132.19
2022-09-07T00:33:54.860Z,100132.38
2022-09-07T00:38:55.762Z,100117.84
2022-09-07T00:43:59.054Z,100124.66
2022-09-07T00:49:08.233Z,100120.50
2022-09-07T00:54:13.221Z,100118.75
2022-09-07T00:59:16.613Z,100119.72
2022-09-07T01:04:19.405Z,100109.63
2022-09-07T01:09:22.991Z,100109.59
2022-09-07T01:14:26.745Z,100103.78
2022-09-07T01:20:03.991Z,100095.44
2022-09-07T01:25:11.397Z,100087.69
2022-09-07T01:30:15.446Z,100102.09
2022-09-07T01:35:23.939Z,100097.88
2022-09-07T01:40:31.563Z,100092.91
2022-09-07T01:45:37.705Z,100089.31
2022-09-07T01:50:41.496Z,100091.28
2022-09-07T01:55:46.587Z,100086.16
2022-09-07T02:00:54.061Z,100096.31
2022-09-07T02:06:01.714Z,100096.94
2022-09-07T02:11:06.251Z,100103.91
2022-09-07T02:16:13.876Z,100103.59
2022-09-07T02:21:18.653Z,100104.44
2022-09-07T02:26:22.062Z,100088.00
2022-09-07T02:31:24.687Z,100082.78
2022-09-07T02:36:32.292Z,100076.81
2022-09-07T02:41:35.341Z,100076.59
2022-09-07T02:47:06.765Z,100067.13
2022-09-07T02:52:17.641Z,100061.16
2022-09-07T02:57:27.453Z,100057.69
2022-09-07T03:02:36.215Z,100061.97
2022-09-07T03:07:44.260Z,100058.56
2022-09-07T03:12:47.237Z,100058.63
2022-09-07T03:17:49.682Z,100066.38
2022-09-07T03:22:52.111Z,100078.56
2022-09-07T03:27:52.747Z,100086.59
2022-09-07T03:32:54.731Z,100081.97
2022-09-07T03:37:55.356Z,100072.69
2022-09-07T03:42:55.954Z,100076.25
2022-09-07T03:47:57.947Z,100068.66
2022-09-07T03:52:58.555Z,100076.25
2022-09-07T03:58:00.164Z,100081.44
2022-09-07T04:03:02.085Z,100073.66
2022-09-07T04:08:03.172Z,100074.75
2022-09-07T04:13:03.774Z,100077.47
2022-09-07T04:18:05.782Z,100071.19
2022-09-07T04:23:06.399Z,100070.53
2022-09-07T04:28:07.019Z,100074.88
2022-09-07T04:33:10.395Z,100075.03
2022-09-07T04:38:15.348Z,100077.50
2022-09-07T04:43:15.955Z,100075.78
2022-09-07T04:48:17.878Z,100065.25
2022-09-07T04:53:18.683Z,100070.25
2022-09-07T04:58:19.294Z,100070.81
2022-09-07T05:03:21.290Z,100069.72
2022-09-07T05:08:21.931Z,100077.88
2022-09-07T05:13:22.717Z,100082.75
2022-09-07T05:18:24.882Z,100075.53
2022-09-07T05:23:26.255Z,100071.03
2022-09-07T05:28:26.897Z,100064.84
2022-09-07T05:38:49.493Z,100056.75
2022-09-07T05:49:12.586Z,100053.56
2022-09-07T05:54:13.255Z,100061.72
2022-09-07T05:59:13.855Z,100070.50
2022-09-07T06:04:15.888Z,100066.56
2022-09-07T06:09:17.157Z,100065.09
2022-09-07T06:14:17.790Z,100045.88
2022-09-07T06:19:19.845Z,100050.16
2022-09-07T06:24:20.486Z,100043.41
2022-09-07T06:29:21.077Z,100030.81
2022-09-07T06:34:24.148Z,100023.56
2022-09-07T06:39:24.853Z,100028.59
2022-09-07T06:44:25.576Z,100036.75
2022-09-07T06:49:27.546Z,100042.91
2022-09-07T06:59:48.943Z,100045.31
2022-09-07T07:04:51.837Z,100051.06
2022-09-07T07:09:52.451Z,100043.03
2022-09-07T07:14:53.035Z,100034.66
2022-09-07T07:19:54.962Z,100040.88
2022-09-07T07:24:55.653Z,100044.63
2022-09-07T07:29:56.260Z,100038.44
2022-09-07T07:34:58.182Z,100033.81
2022-09-07T07:40:14.568Z,100034.13
2022-09-07T07:50:37.626Z,100015.69
2022-09-07T07:55:45.676Z,100016.13
2022-09-07T08:00:55.210Z,100017.38
2022-09-07T08:05:58.060Z,100011.28
2022-09-07T08:10:58.752Z,100015.56
2022-09-07T08:15:59.508Z,100019.06
2022-09-07T08:21:02.239Z,100018.06
2022-09-07T08:26:02.874Z,100029.44
2022-09-07T08:31:06.097Z,100025.97
2022-09-07T08:36:09.851Z,100025.41
2022-09-07T08:41:39.268Z,100018.47
2022-09-07T08:46:45.613Z,100007.59
2022-09-07T08:51:51.769Z,99996.19
2022-09-07T09:02:40.267Z,99999.22
2022-09-07T09:07:47.245Z,99986.69
2022-09-07T09:13:05.402Z,99987.59
2022-09-07T09:18:20.917Z,99979.28
2022-09-07T09:23:26.737Z,99986.56
2022-09-07T09:28:30.270Z,99982.28
2022-09-07T09:33:33.107Z,99979.22
2022-09-07T09:38:36.883Z,99980.78
2022-09-07T09:43:45.386Z,99971.47
2022-09-07T09:48:54.296Z,99970.53
2022-09-07T09:54:00.148Z,99966.44
2022-09-07T10:04:35.495Z,99955.56
2022-09-07T10:09:40.457Z,99959.13
2022-09-07T10:14:45.272Z,99959.09
2022-09-07T10:19:45.954Z,99955.75
2022-09-07T10:24:47.902Z,99957.56
2022-09-07T10:29:48.953Z,99946.81
2022-09-07T10:35:05.275Z,99950.41
2022-09-07T10:40:20.766Z,99950.53
2022-09-07T10:45:28.921Z,99966.22
2022-09-07T10:50:38.212Z,99957.84
2022-09-07T10:55:43.416Z,99958.53
2022-09-07T11:00:52.265Z,99944.56
2022-09-07T11:06:07.347Z,99949.53
2022-09-07T11:12:00.352Z,99955.00
2022-09-07T11:16:51.735Z,99949.34
2022-09-07T11:22:04.950Z,99949.69
2022-09-07T11:27:15.498Z,99954.81
2022-09-07T11:32:22.353Z,99952.84
2022-09-07T11:37:29.156Z,99947.16
2022-09-07T11:42:45.979Z,99941.81
2022-09-07T11:47:51.599Z,99936.34
2022-09-07T11:52:56.313Z,99924.59
2022-09-07T11:58:29.923Z,99920.31
2022-09-07T12:03:54.756Z,99919.22
2022-09-07T12:09:07.665Z,99907.59
2022-09-07T12:14:31.342Z,99903.16
2022-09-07T12:19:32.087Z,99898.38
2022-09-07T12:24:42.099Z,99885.84
2022-09-07T12:29:45.568Z,99884.97
2022-09-07T12:34:57.959Z,99881.28
2022-09-07T12:40:33.120Z,99912.88
2022-09-07T12:45:53.407Z,99896.09
2022-09-07T12:50:58.875Z,99887.41
2022-09-07T12:56:24.322Z,99899.72
2022-09-07T13:01:36.287Z,99907.38
2022-09-07T13:07:04.570Z,99921.59
2022-09-07T13:17:56.335Z,99898.63
2022-09-07T13:23:22.763Z,99904.72
2022-09-07T13:28:34.829Z,99910.28
2022-09-07T13:33:48.241Z,99908.28
2022-09-07T13:38:51.320Z,99882.06
2022-09-07T13:43:58.715Z,99888.72
2022-09-07T13:49:07.518Z,99890.53
2022-09-07T13:54:16.873Z,99888.31
2022-09-07T13:59:22.068Z,99873.09
2022-09-07T14:04:27.196Z,99868.75
2022-09-07T14:09:27.823Z,99858.03
2022-09-07T14:14:30.190Z,99866.47
2022-09-07T14:19:39.236Z,99877.44
2022-09-07T14:24:43.509Z,99862.66
2022-09-07T14:29:44.121Z,99850.69
2022-09-07T14:34:46.934Z,99857.31
2022-09-07T14:39:50.387Z,99853.94
2022-09-07T14:44:53.242Z,99847.03
2022-09-07T14:49:58.073Z,99851.81
2022-09-07T14:54:58.848Z,99857.63
2022-09-07T15:00:19.396Z,99859.78
2022-09-07T15:05:25.637Z,99849.75
2022-09-07T15:10:36.833Z,99844.59
2022-09-07T15:15:39.551Z,99829.56
2022-09-07T15:20:44.267Z,99834.47
2022-09-07T15:25:50.860Z,99817.78
2022-09-07T15:31:39.633Z,99824.13
2022-09-07T15:36:17.501Z,99819.00
2022-09-07T15:41:24.199Z,99807.91
2022-09-07T15:46:26.396Z,99791.53
2022-09-07T16:13:01.799Z,99769.78
2022-09-07T16:18:04.453Z,99775.31
2022-09-07T16:23:14.690Z,99784.97
2022-09-07T16:28:16.063Z,99790.06
2022-09-07T16:33:16.709Z,99802.53
2022-09-07T16:43:39.318Z,99807.56
2022-09-07T16:48:39.910Z,99807.16
2022-09-07T16:53:42.135Z,99805.06
2022-09-07T16:58:44.433Z,99810.16
2022-09-07T17:03:45.611Z,99784.47
2022-09-07T17:08:48.389Z,99772.78
2022-09-07T17:13:49.682Z,99757.34
2022-09-07T17:24:12.941Z,99761.75
2022-09-07T17:29:13.586Z,99783.97
2022-09-07T17:34:14.229Z,99799.13
2022-09-07T17:39:18.143Z,99808.41
2022-09-07T17:44:19.340Z,99812.13
2022-09-07T17:49:19.973Z,99807.34
2022-09-07T17:54:22.233Z,99807.59
2022-09-07T18:04:43.819Z,99824.03
2022-09-07T18:09:45.925Z,99830.06
2022-09-07T18:14:46.625Z,99821.41
2022-09-07T18:19:47.233Z,99820.09
2022-09-07T18:24:50.985Z,99820.19
2022-09-07T18:29:51.611Z,99812.56
2022-09-07T18:34:52.324Z,99814.13
2022-09-07T18:39:54.554Z,99824.84
2022-09-07T18:50:16.909Z,99823.34
2022-09-07T18:55:18.822Z,99825.06
2022-09-07T19:00:19.618Z,99827.09
2022-09-07T19:10:42.301Z,99812.38
2022-09-07T19:15:42.981Z,99788.16
2022-09-07T19:20:43.646Z,99772.13
2022-09-07T19:25:45.649Z,99769.38
2022-09-07T19:30:46.377Z,99769.84
2022-09-07T19:35:46.997Z,99766.00
2022-09-07T19:40:57.484Z,99788.84
2022-09-07T19:45:59.202Z,99794.38
2022-09-07T19:51:02.325Z,99790.25
2022-09-07T19:56:06.294Z,99796.31
2022-09-07T20:01:08.646Z,99771.97
2022-09-07T20:06:11.421Z,99775.25
2022-09-07T20:11:16.261Z,99802.03
2022-09-07T20:16:19.656Z,99802.78
2022-09-07T20:21:22.458Z,99792.63
2022-09-07T20:26:24.443Z,99792.97
2022-09-07T20:31:26.195Z,99790.44
2022-09-07T20:36:26.859Z,99782.56
2022-09-07T20:41:31.256Z,99773.91
2022-09-07T20:46:32.510Z,99772.06
2022-09-07T20:51:33.355Z,99773.56
2022-09-07T20:56:35.332Z,99764.59
2022-09-07T21:01:36.603Z,99758.38
2022-09-07T21:06:37.390Z,99768.63
2022-09-07T21:11:41.266Z,99771.28
2022-09-07T21:16:42.540Z,99772.66
2022-09-07T21:21:43.855Z,99772.28
2022-09-07T21:26:46.132Z,99761.38
2022-09-07T21:31:47.393Z,99758.84
2022-09-07T21:36:48.026Z,99751.81
2022-09-07T21:41:49.931Z,99751.28
2022-09-07T21:46:51.133Z,99755.81
2022-09-07T21:51:51.884Z,99750.31
2022-09-07T21:56:54.187Z,99746.47
2022-09-07T22:01:54.810Z,99740.13
2022-09-07T22:06:55.521Z,99743.72
2022-09-07T22:11:57.551Z,99735.41
2022-09-07T22:16:58.167Z,99729.72
2022-09-07T22:21:58.778Z,99721.00
2022-09-07T22:27:00.663Z,99710.91
2022-09-07T22:32:01.294Z,99713.22
2022-09-07T22:37:01.917Z,99712.47
2022-09-07T22:42:03.902Z,99723.63
2022-09-07T22:47:04.653Z,99722.69
2022-09-07T22:52:05.338Z,99714.00
2022-09-07T22:57:07.551Z,99705.44
2022-09-07T23:02:08.260Z,99706.00
2022-09-07T23:07:08.921Z,99704.50
2022-09-07T23:12:10.839Z,99702.53
2022-09-07T23:17:11.405Z,99701.91
2022-09-07T23:22:11.992Z,99704.06
2022-09-07T23:27:13.961Z,99699.22
2022-09-07T23:32:14.586Z,99692.53
2022-09-07T23:37:15.174Z,99707.53
2022-09-07T23:42:17.089Z,99694.28
2022-09-07T23:47:17.837Z,99697.03
2022-09-07T23:52:18.445Z,99697.44
2022-09-07T23:57:20.334Z,99698.63
